Nearby METAR Reports

 

KRUT - Rutland State, Vermont, USA
Distance from station: NW 10mi, 17km
Updated: Sat, 23-Jun-2018 5:56am EDT
Few Clouds
Few Clouds
 Wind from SE
Wind: SE 8 mph , 13 km/h
Temperature: 63°F , 17°C
Dew Point: 48°F , 9°C
Humidity: 59%
Barometer: 29.99 inHg , 1015.6 hPa
Clouds: Few Clouds
Visibility: 10 miles , 16 km
Cloud details: Few Clouds 12000 ft
2018/06/23 09:56 KRUT 230956Z AUTO 13007KT 10SM FEW120 17/09 A2999 RMK AO2 SLP167 T01670094 $
KVSF - Springfield, Vermont, USA
Distance from station: ESE 15mi, 23km
Updated: Sat, 23-Jun-2018 5:54am EDT
Overcast
Overcast
 Wind from calm
Wind: Calm
Temperature: 57°F , 14°C
Dew Point: 55°F , 13°C
Humidity: 94%
Barometer: 30.02 inHg , 1016.6 hPa
Clouds: Overcast
Visibility: 10 miles , 16 km
Cloud details: Overcast 10000 ft
2018/06/23 09:54 KVSF 230954Z AUTO 00000KT 10SM OVC100 14/13 A3002 RMK AO2 SLP163 T01440128
 
KLEB - Lebanon, New Hampshire, USA
Distance from station: ENE 28mi, 46km
Updated: Sat, 23-Jun-2018 5:53am EDT
Light rain, Few clouds
Light rain, Few clouds
 Wind from calm
Wind: Calm
Temperature: 59°F , 15°C
Dew Point: 54°F , 12°C
Humidity: 82%
Barometer: 30.00 inHg , 1015.9 hPa
Summary: Light rain
Clouds: Few Clouds
Visibility: 10 miles , 16 km
Cloud details: Few Clouds 11000 ft
2018/06/23 09:53 KLEB 230953Z 00000KT 10SM -RA FEW110 15/12 A3000 RMK AO2 RAB50 SLP152 P0000 T01500117
K6B0 - Middlebury, Vermont, USA
Distance from station: NNW 42mi, 67km
Updated: Sat, 23-Jun-2018 5:55am EDT
Clear
Clear
 Wind from calm
Wind: Calm
Temperature: 59°F , 15°C
Dew Point: 55°F , 13°C
Humidity: 88%
Barometer: 29.98 inHg , 1015.2 hPa
Clouds: Clear
Visibility: 10 miles , 16 km
2018/06/23 09:55 K6B0 230955Z AUTO 00000KT 10SM CLR 15/13 A2998 RMK AO2 T01530125
 
KGFL - Glens Falls, New York, USA
Distance from station: W 42mi, 68km
Updated: Sat, 23-Jun-2018 5:53am EDT
Partly cloudy
Partly cloudy
 Wind from calm
Wind: Calm
Temperature: 63°F , 17°C
Dew Point: 54°F , 12°C
Humidity: 73%
Barometer: 29.97 inHg , 1014.9 hPa
Clouds: Partly cloudy
Visibility: 10 miles , 16 km
Cloud details: Partly cloudy 10000 ft
2018/06/23 09:53 KGFL 230953Z AUTO 00000KT 10SM SCT100 17/12 A2997 RMK AO2 SLP147 T01670117
KDDH - Bennington, Vermont, USA
Distance from station: SSW 43mi, 69km
Updated: Sat, 23-Jun-2018 5:54am EDT
Overcast
Overcast
 Wind from ENE
Wind: ENE 5 mph , 7 km/h
Temperature: 63°F , 17°C
Dew Point: 45°F , 7°C
Humidity: 52%
Barometer: 29.98 inHg , 1015.2 hPa
Clouds: Overcast
Visibility: 10 miles , 16 km
Cloud details: Overcast 8000 ft
2018/06/23 09:54 KDDH 230954Z AUTO 07004KT 10SM OVC080 17/07 A2998 RMK AO2 SLP145 T01670067
 
KEEN - Keene/Dillant, New Hampshire, USA
Distance from station: SE 46mi, 73km
Updated: Sat, 23-Jun-2018 5:56am EDT
Overcast
Overcast
 Wind from calm
Wind: Calm
Temperature: 57°F , 14°C
Dew Point: 54°F , 12°C
Humidity: 88%
Barometer: 30.02 inHg , 1016.6 hPa
Clouds: Overcast
Visibility: 10 miles , 16 km
Cloud details: Overcast 9000 ft
2018/06/23 09:56 KEEN 230956Z AUTO 00000KT 10SM OVC090 14/12 A3002 RMK AO2 SLP180 T01390122
KALB - Albany, New York, USA
Distance from station: SW 69mi, 111km
Updated: Sat, 23-Jun-2018 5:51am EDT
Overcast
Overcast
 Wind from ESE
Wind: ESE 5 mph , 7 km/h
Temperature: 64°F , 18°C
Dew Point: 45°F , 7°C
Humidity: 49%
Barometer: 29.95 inHg , 1014.2 hPa
Clouds: Overcast
Visibility: 10 miles , 16 km
Cloud details: Partly cloudy 7500 ft
Mostly cloudy 13000 ft
Overcast 16000 ft
2018/06/23 09:51 KALB 230951Z 11004KT 10SM SCT075 BKN130 OVC160 18/07 A2995 RMK AO2 RAE20 SLP142 P0000 T01780072
 
KSCH - Schenectady Airp, New York, USA
Distance from station: SW 69mi, 111km
Updated: Fri, 22-Jun-2018 9:50pm EDT
NOT Current
Clear
Clear
 Wind from S
Wind: S 10 mph , 17 km/h
Temperature: 72°F , 22°C
Dew Point: 54°F , 12°C
Humidity: 53%
Barometer: 29.99 inHg , 1015.6 hPa
Clouds: Clear
Visibility: 10 miles , 16 km
2018/06/23 01:50 KSCH 230150Z 18009KT 10SM CLR 22/12 A2999 RMK LAST
KLCI - Laconia Muni, New Hampshire, USA
Distance from station: E 69mi, 112km
Updated: Sat, 23-Jun-2018 5:56am EDT
Clear
Clear
 Wind from WSW
Wind: WSW 3 mph , 6 km/h
Temperature: 57°F , 14°C
Dew Point: 52°F , 11°C
Humidity: 82%
Barometer: 30.03 inHg , 1016.9 hPa
Clouds: Clear
Visibility: 10 miles , 16 km
2018/06/23 09:56 KLCI 230956Z AUTO 25003KT 10SM CLR 14/11 A3003 RMK AO2 SLP183 T01390106
 
KBTV - Burlington, Vermont, USA
Distance from station: NNW 74mi, 120km
Updated: Sat, 23-Jun-2018 5:54am EDT
Overcast
Overcast
 Wind from S
Wind: S 12 mph , 19 km/h
Temperature: 68°F , 20°C
Dew Point: 52°F , 11°C
Humidity: 56%
Barometer: 29.96 inHg , 1014.6 hPa
Clouds: Overcast
Visibility: 10 miles , 16 km
Cloud details: Partly cloudy 9000 ft
Overcast 14000 ft
2018/06/23 09:54 KBTV 230954Z 18010KT 10SM SCT090 OVC140 20/11 A2996 RMK AO2 SLP143 T02000111
KMHT - Manchester, New Hampshire, USA
Distance from station: ESE 76mi, 123km
Updated: Sat, 23-Jun-2018 5:53am EDT
Overcast
Overcast
 Wind from calm
Wind: Calm
Temperature: 61°F , 16°C
Dew Point: 54°F , 12°C
Humidity: 77%
Barometer: 30.01 inHg , 1016.3 hPa
Clouds: Overcast
Visibility: 10 miles , 16 km
Cloud details: Partly cloudy 8500 ft
Mostly cloudy 12000 ft
Overcast 20000 ft
2018/06/23 09:53 KMHT 230953Z 00000KT 10SM SCT085 BKN120 OVC200 16/12 A3001 RMK AO2 RAB05E47 SLP172 P0001 T01560122
 
KMVL - Morrisville, Vermont, USA
Distance from station: N 77mi, 124km
Updated: Sat, 23-Jun-2018 5:54am EDT
Clear
Clear
 Wind from SSE
Wind: SSE 3 mph , 6 km/h
Temperature: 54°F , 12°C
Dew Point: 52°F , 11°C
Humidity: 94%
Barometer: 29.99 inHg , 1015.6 hPa
Clouds: Clear
Visibility: 10 miles , 16 km
2018/06/23 09:54 KMVL 230954Z AUTO 16003KT 10SM CLR 12/11 A2999 RMK AO2 SLP156 T01170111 TSNO